Rawmarsh, United Kingdom
Current Conditions -  °F | °C
As of 8:20 AM on Saturday 29 Nov 2014 (Local Time) from EGCN Reporting Station
Haze Haze  
Wind Chill: 50°   Ceiling: 1000
Heat Index: 50°   Visibility: 2.5mi
Dew Point: 48°   Wind: 5mph
Humidity: 94%   Direction: 70°ENE
Pressure: 29.88"   Gusts: NA
Location:  53.46°N, 1.34°W
Report Text: EGCN 290820Z 07004KT 040V100 4000 BR FEW006 BKN010 10/09 Q1012
Loading
Personal Weather Stations






























Interactive Weather Map New forecast layout! Learn more

10-Day Weather Forecast

Advertisements
Track Severe Weather on mobile